Weather observations for the past three days for
Forest City Municipal Airport
Metric (Imperial)
Date Time (cdt) Wind (kph) Vis. (km) Weather Sky Cond. Temperature (ºC) Relative Humidity Wind Chill (°C) Heat Index (°C) Pressure Precipitation (cm)
Air Dwpt 6 hour altimeter (cm) sea level (mb) 1 hr 3 hr 6 hr
Max. Min.
05 19:15 Calm 16.09 Fair CLR 25 21 79% 26 76.23 0.0
05 18:55 Calm 16.09 Fair CLR 25 21 79% 26 76.23 0.0
05 18:35 Calm 16.09 Fair CLR 26 21 74% 27 76.2 0.0
05 18:15 Calm 16.09 Fair CLR 26 21 74% 27 76.2 0.0
05 17:55 Calm 16.09 Fair CLR 26 22 79% 28 76.17 0.0
05 17:35 Calm 16.09 Fair CLR 27 21 70% 29 76.17 0.0
05 17:15 Calm 16.09 Partly Cloudy SCT019 27 22 74% 29 76.17 0.0
05 16:55 Calm 16.09 Partly Cloudy SCT019 27 22 74% 29 76.17 0.0
05 16:35 Calm 16.09 Partly Cloudy SCT015 27 22 74% 29 76.17 0.0
05 16:15 SE 15 16.09 Mostly Cloudy BKN015 27 22 74% 29 76.15 0.0
05 15:55 E 19 16.09 Partly Cloudy SCT013 27 23 79% 30 76.17 0.0
05 15:35 E 17 16.09 Partly Cloudy SCT013 27 22 74% 29 76.17 0.0
05 15:15 E 17 16.09 Partly Cloudy SCT013 26 22 79% 28 76.17 0.0
05 14:55 E 17 16.09 Fair CLR 26 22 79% 28 76.17 0.0
05 12:55 E 17 G 26 16.09 Fair CLR 25 20 74% 26 76.25 0.0
05 12:35 N 13 16.09 Fair CLR 25 20 74% 26 76.28 0.0
05 12:15 N 11 11.27 Fair CLR 25 21 79% 26 76.3 0.0
05 11:55 N 11 16.09 Fair CLR 25 21 79% 26 76.35 0.0 0.03
05 11:35 N 13 11.27 Partly Cloudy SCT003 23 22 94% 76.38 0.0
05 11:15 NW 15 6.44 Fog/Mist OVC003 23 22 94% 76.4 0.0
05 10:55 Calm 4.02 Fog/Mist OVC003 23 22 94% 76.35 0.0
05 10:35 Calm 3.22 Fog/Mist OVC003 22 22 100% 76.38 0.0
05 10:15 Calm 2.01 Fog/Mist OVC003 22 22 100% 76.35 0.0
05 09:55 Calm 3.22 Fog/Mist OVC003 22 22 100% 76.3 0.0
05 09:35 Calm 1.21 Fog/Mist OVC003 22 21 94% 76.3 0.0
05 09:15 NE 7 0.80 Fog OVC003 22 21 94% 76.28 0.0
05 08:55 NE 7 2.41 Fog/Mist OVC003 22 21 94% 76.28 0.0
05 08:35 NE 6 0.80 Fog OVC003 22 22 100% 76.23 0.0
05 08:15 Calm 0.40 Fog OVC003 22 22 100% 76.23 0.0
05 07:55 Calm 0.80 Fog OVC003 22 22 100% 76.23 0.0 0.03
05 07:35 Calm 4.02 Fog/Mist OVC003 22 21 94% 76.2 0.0 0.03
05 07:15 Calm 6.44 Fog/Mist OVC003 22 21 94% 76.15 0.0 0.03
05 06:55 Calm 4.83 Fog/Mist OVC003 22 21 94% 76.15 0.0
05 06:35 E 6 3.22 Fog/Mist OVC003 22 21 94% 76.15 0.0
05 06:15 Calm 3.22 Fog/Mist OVC003 22 22 100% 76.15 0.0
05 05:55 E 7 2.82 Fog/Mist OVC003 22 22 100% 76.12 0.0
05 05:35 E 7 1.21 Fog/Mist OVC003 22 22 100% 76.12 0.0
05 05:15 NE 6 8.05 Fog/Mist BKN003 22 21 94% 76.12 0.0
05 04:55 NE 6 16.09 Fair CLR 22 21 94% 76.12 0.0 0.03
05 04:35 Calm 11.27 Fair CLR 22 21 94% 76.1 0.0
05 04:15 Calm 11.27 Partly Cloudy SCT002 22 21 94% 76.07 0.0
05 03:55 Calm 1.21 Fog/Mist BKN002 21 20 94% 76.07 0.0
05 03:35 Calm 2.82 Fog/Mist VV007 21 21 100% 76.1 0.0
05 03:15 Calm 11.27 Fair CLR 22 21 94% 76.1 0.0
05 02:55 NE 7 16.09 Partly Cloudy SCT002 22 22 100% 76.12 0.0 0.03
05 02:35 N 6 6.44 Fog/Mist BKN002 20 20 100% 76.12 0.0 0.03
05 02:15 Calm 11.27 Partly Cloudy SCT002 20 19 94% 76.1 0.0
05 01:55 Calm 16.09 Mostly Cloudy BKN002 20 20 100% 76.1 0.0
05 01:35 Calm 0.40 Fog OVC002 21 20 94% 76.1 0.0
05 01:15 Calm 1.21 Fog/Mist BKN002 21 20 94% 76.1 0.0
05 00:55 Calm 4.02 Fog/Mist CLR 21 21 100% 76.1 0.0 0.03
05 00:35 Calm 1.61 Fog/Mist VV007 21 20 94% 76.1 0.0 0.03
05 00:15 Calm 2.01 Fog/Mist VV007 21 21 100% 76.1 0.0
04 23:55 Calm 11.27 Fair CLR 22 22 100% 76.07 0.0
04 23:35 Calm 2.82 Fog/Mist VV007 22 21 94% 76.07 0.0
04 23:15 Calm 11.27 Fair CLR 23 22 94% 76.07 0.0
04 22:55 Calm 11.27 Fair CLR 23 22 94% 76.07 0.0
04 22:35 Calm 11.27 Fair CLR 23 22 94% 76.1 0.0
04 22:15 Calm 16.09 Fair CLR 24 22 89% 24 76.1 0.0
04 21:55 Calm 16.09 Fair CLR 23 22 94% 76.07 0.0 0.03
04 21:35 SE 6 16.09 Fair CLR 25 23 89% 26 76.07 0.0 0.03
04 21:15 E 6 11.27 Fair CLR 24 23 94% 23 76.05 0.0
04 20:55 Calm 16.09 Fair CLR 25 23 89% 26 76.05 0.0
04 20:35 Calm 16.09 Fair CLR 25 23 89% 26 76.02 0.0
04 20:15 Calm 16.09 Fair CLR 26 23 84% 28 76.02 0.0
04 19:55 Calm 16.09 Fair CLR 27 24 84% 30 76.02 0.0
04 19:35 Calm 16.09 Fair CLR 28 23 74% 31 76.02 0.0
04 19:15 Calm 16.09 Fair CLR 29 25 79% 35 76 0.0
04 18:55 Calm 16.09 Fair CLR 30 23 66% 34 76 0.0
04 18:35 Calm 16.09 Fair CLR 31 23 62% 35 76 0.0
04 18:15 Calm 16.09 Fair CLR 31 22 59% 35 75.97 0.0
04 17:55 Calm 16.09 Fair CLR 31 23 62% 35 75.97 0.0
04 17:35 SW 7 16.09 Partly Cloudy SCT038 31 23 62% 35 75.97 0.0
04 17:15 SW 7 16.09 Partly Cloudy SCT040 32 22 55% 36 75.97 0.0
04 16:55 Calm 16.09 Mostly Cloudy BKN038 32 22 55% 36 75.97 0.0 0.03
04 16:35 SE 9 16.09 Overcast OVC036 32 23 59% 37 75.97 0.0
04 16:15 S 11 16.09 Mostly Cloudy BKN036 32 23 59% 37 75.95 0.0
04 15:55 Calm 16.09 Partly Cloudy SCT036 32 22 55% 36 75.95 0.0
04 15:35 S 6 16.09 Fair CLR 32 23 59% 37 75.95 0.0
04 15:15 SE 11 16.09 Fair CLR 32 22 55% 36 75.95 0.0
04 14:55 SE 13 16.09 Fair CLR 32 23 59% 37 75.97 0.0
04 14:35 SE 11 16.09 Fair CLR 32 22 55% 36 75.95 0.0
04 14:15 SE 6 16.09 Fair CLR 32 22 55% 36 75.95 0.0
04 13:55 SE 7 16.09 Fair CLR 31 22 59% 35 75.95 0.0
04 13:35 SE 13 16.09 Fair CLR 32 22 55% 36 75.95 0.0
04 13:15 SE 11 16.09 Fair CLR 31 22 59% 35 75.95 0.0
04 12:55 E 7 16.09 Partly Cloudy SCT120 31 21 55% 34 75.95 0.0
04 12:35 SE 7 16.09 Fair CLR 30 21 59% 33 75.95 0.0
04 12:15 S 7 16.09 Fair CLR 30 22 62% 33 75.95 0.0
04 11:55 E 6 16.09 Fair CLR 30 21 59% 33 75.95 0.0 0.03
04 11:35 E 6 16.09 Fair CLR 30 22 62% 33 75.92 0.0 0.03
04 11:15 Calm 16.09 Fair CLR 29 21 62% 31 75.92 0.0
04 10:55 Calm 16.09 Fair CLR 28 21 66% 30 75.92 0.0
04 10:35 W 6 16.09 Fair CLR 28 21 66% 30 75.92 0.0
04 10:15 SW 9 16.09 Fair CLR 28 21 66% 30 75.92 0.0
04 09:55 W 9 16.09 Fair CLR 27 21 70% 29 75.95 0.0
04 09:35 S 9 16.09 Fair CLR 27 21 70% 29 75.92 0.0
04 09:15 SW 7 16.09 Fair CLR 26 21 74% 27 75.92 0.0
04 08:55 S 6 16.09 Fair CLR 26 21 74% 27 75.92 0.0 0.03
04 08:35 S 6 16.09 Fair CLR 25 21 79% 26 75.92 0.0
04 08:15 Calm 16.09 Fair CLR 24 20 78% 24 75.92 0.0
04 07:55 Calm 16.09 Fair CLR 22 20 88% 75.9 0.0
04 07:35 S 6 16.09 Fair CLR 22 20 88% 75.9 0.0
04 07:15 Calm 16.09 Fair CLR 22 20 88% 75.9 0.0
04 06:55 Calm 16.09 Fair CLR 22 20 88% 75.87 0.0
04 06:35 Calm 16.09 Fair CLR 22 20 88% 75.87 0.0
04 06:15 S 6 16.09 Partly Cloudy SCT085 SCT110 22 20 88% 75.87 0.0
04 05:55 Calm 16.09 Mostly Cloudy BKN085 BKN110 22 20 88% 75.87 0.0
04 05:35 Calm 16.09 Mostly Cloudy BKN085 BKN100 22 20 88% 75.84 0.0
04 05:15 Calm 16.09 Mostly Cloudy BKN085 22 20 88% 75.84 0.0
04 04:55 Calm 16.09 Mostly Cloudy BKN075 BKN110 22 20 88% 75.84 0.0
04 04:35 Calm 16.09 Mostly Cloudy BKN075 BKN100 22 20 88% 75.84 0.0
04 04:15 Calm 16.09 Mostly Cloudy BKN075 BKN110 21 20 94% 75.84 0.0
04 03:55 Calm 16.09 Mostly Cloudy BKN075 BKN100 21 20 94% 75.84 0.0
04 03:35 SE 6 16.09 Mostly Cloudy BKN080 BKN090 BKN110 21 20 94% 75.84 0.0
04 03:15 Calm 16.09 Mostly Cloudy SCT080 BKN095 21 20 94% 75.84 0.0
04 02:55 Calm 16.09 Mostly Cloudy SCT080 BKN090 21 20 94% 75.84 0.0
04 02:35 Calm 16.09 Mostly Cloudy SCT070 BKN085 22 21 94% 75.84 0.0
04 02:15 Calm 16.09 Mostly Cloudy BKN070 22 21 94% 75.84 0.0
04 01:55 Calm 16.09 Mostly Cloudy SCT070 BKN080 22 21 94% 75.84 0.0
04 01:35 Calm 16.09 Partly Cloudy SCT070 22 21 94% 75.87 0.0
04 01:15 Calm 16.09 Fair CLR 22 21 94% 75.84 0.0
04 00:55 Calm 16.09 Fair CLR 22 21 94% 75.84 0.0
04 00:35 Calm 16.09 Fair CLR 22 21 94% 75.84 0.0
04 00:15 SE 7 16.09 Fair CLR 23 21 89% 75.84 0.0
03 23:55 SE 6 16.09 Fair CLR 23 21 89% 75.84 0.0 0.03
03 23:35 SE 7 16.09 Fair CLR 23 21 89% 75.82 0.0
03 23:15 SE 6 16.09 Fair CLR 23 22 94% 75.84 0.0
03 22:55 SE 6 16.09 Fair CLR 23 22 94% 75.82 0.0
03 22:35 SE 7 16.09 Fair CLR 25 22 83% 26 75.82 0.0
03 22:15 S 11 16.09 Fair CLR 26 22 79% 28 75.82 0.0
03 21:55 S 13 16.09 Fair CLR 26 22 79% 28 75.82 0.0
03 21:35 S 13 16.09 Fair CLR 26 22 79% 28 75.79 0.0
03 21:15 S 15 16.09 Fair CLR 26 23 84% 28 75.79 0.0
03 20:55 SE 7 16.09 Fair CLR 25 22 83% 26 75.79 0.0
03 20:35 Calm 16.09 Fair CLR 25 22 83% 26 75.79 0.0
03 20:15 SE 6 16.09 Fair CLR 25 22 83% 26 75.77 0.0
03 19:55 SE 6 16.09 Fair CLR 26 22 79% 28 75.77 0.0
03 19:35 SE 6 16.09 Fair CLR 27 22 74% 29 75.74 0.0
03 19:15 S 7 16.09 Fair CLR 27 22 74% 29 75.74 0.0
03 18:55 S 9 16.09 Fair CLR 28 22 70% 31 75.74 0.0
03 18:35 S 19 G 28 16.09 Fair CLR 29 22 66% 32 75.72 0.0
03 18:15 S 13 16.09 Fair CLR 30 22 62% 33 75.72 0.0
03 17:55 S 17 G 28 16.09 Fair CLR 29 21 62% 31 75.74 0.0
03 17:35 S 17 G 33 16.09 Fair CLR 30 21 59% 33 75.72 0.0
03 17:15 S 17 16.09 Fair CLR 30 21 59% 33 75.72 0.0
03 16:55 S 13 16.09 Fair CLR 29 21 62% 31 75.74 0.0
03 16:35 S 20 G 31 16.09 Fair CLR 29 20 58% 31 75.72 0.0
03 16:15 S 24 G 37 16.09 Fair CLR 30 20 55% 32 75.69 0.0
03 15:55 S 20 G 30 16.09 Fair CLR 30 20 55% 32 75.72 0.0
03 15:35 S 24 G 39 16.09 Fair CLR 30 20 55% 32 75.72 0.0
03 15:15 S 24 G 43 16.09 Fair CLR 30 20 55% 32 75.72 0.0
03 14:55 S 28 G 33 16.09 Fair CLR 29 20 58% 31 75.72 0.0 0.03
03 14:35 S 26 G 37 16.09 Fair CLR 28 21 66% 30 75.74 0.0
03 14:15 S 26 G 39 16.09 Fair CLR 27 20 66% 29 75.77 0.0
03 13:35 SE 20 16.09 Partly Cloudy SCT120 25 20 74% 26 75.79 0.0
03 13:15 SE 24 16.09 Fair CLR 24 19 74% 25 75.82 0.0
03 12:55 SE 26 G 33 16.09 Fair CLR 24 19 74% 25 75.84 0.0
03 12:35 SE 20 G 37 16.09 Fair CLR 24 19 74% 25 75.84 0.0
03 12:15 SE 22 G 31 16.09 Partly Cloudy SCT070 SCT080 SCT100 24 19 74% 25 75.87 0.0
03 11:55 SE 20 16.09 Mostly Cloudy SCT070 SCT080 BKN120 23 18 74% 75.9 0.0
03 11:35 SE 17 16.09 Partly Cloudy SCT120 22 19 83% 75.92 0.0
03 11:15 SE 19 11.27 Partly Cloudy SCT120 22 19 83% 75.95 0.0
03 10:55 SE 20 16.09 Light Rain BKN110 22 18 78% 75.92 0.0
03 10:35 SE 22 G 37 16.09 Overcast OVC110 21 18 83% 76.02 0.0
03 10:15 SE 22 16.09 Mostly Cloudy BKN110 21 18 83% 75.95 0.0
03 09:55 SE 20 G 28 16.09 Mostly Cloudy SCT050 SCT080 BKN110 21 18 83% 76 0.0
03 09:35 SE 22 G 30 8.05 Light Rain SCT046 BKN060 OVC110 21 18 83% 75.97 0.0
03 09:15 S 9 16.09 Mostly Cloudy BKN110 22 18 78% 76.07 0.0
03 08:55 E 17 16.09 Partly Cloudy SCT110 22 19 83% 75.92 0.0
03 08:35 SE 11 16.09 Mostly Cloudy BKN110 22 19 83% 75.95 0.0
03 08:15 SE 17 16.09 Partly Cloudy SCT110 22 19 83% 75.92 0.0
03 07:55 SE 15 16.09 Overcast OVC110 21 19 88% 75.92 0.0
03 07:35 SE 17 16.09 Light Rain SCT050 SCT070 OVC110 21 19 88% 75.92 0.0
03 07:15 E 11 16.09 Light Rain SCT050 SCT070 OVC110 21 20 94% 75.92 0.0
03 06:55 E 13 16.09 Light Rain SCT044 SCT060 BKN110 21 20 94% 75.97 0.0
03 06:35 Calm 16.09 Light Drizzle SCT060 SCT080 OVC110 21 20 94% 75.97 0.0
03 06:15 NE 11 16.09 Mostly Cloudy SCT070 BKN100 BKN120 21 19 88% 75.9 0.0
03 05:55 NE 6 16.09 Light Rain SCT039 BKN070 OVC120 21 20 94% 75.95 0.0
03 05:35 Calm 16.09 Overcast BKN060 OVC080 22 19 83% 76.07 0.0
03 05:15 Calm 16.09 Light Rain SCT075 BKN095 OVC120 21 19 88% 76.02 0.0
03 04:55 NW 6 16.09 Mostly Cloudy SCT021 SCT033 BKN120 22 18 78% 75.95 0.0
03 04:35 N 9 4.83 Heavy Rain SCT026 BKN070 OVC100 22 18 78% 75.97 0.0
03 04:15 W 9 16.09 Mostly Cloudy SCT080 BKN100 23 18 74% 76.02 0.0
03 03:55 S 11 16.09 Mostly Cloudy BKN100 22 19 83% 75.92 0.0
03 03:35 SE 11 16.09 Partly Cloudy SCT060 SCT080 SCT100 21 18 83% 75.87 0.0
03 03:15 SE 9 16.09 Overcast SCT065 SCT080 OVC110 21 18 83% 75.87 0.0
03 02:55 E 13 16.09 Light Rain SCT028 BKN085 OVC120 21 18 83% 75.87 0.0 0.03
03 02:35 NW 13 G 41 4.83 Light Rain SCT023 BKN060 OVC090 22 17 73% 75.9 0.0 0.03
03 02:15 SW 24 G 37 16.09 Mostly Cloudy BKN100 BKN110 22 21 94% 75.97 0.0 0.03
03 01:55 Calm 16.09 Fair CLR 22 21 94% 75.84 0.0
03 01:35 Calm 16.09 Fair CLR 22 21 94% 75.84 0.0
03 01:15 Calm 16.09 Fair CLR 22 20 88% 75.84 0.0
03 00:55 Calm 16.09 Fair CLR 21 20 94% 75.87 0.0
03 00:35 Calm 16.09 Fair CLR 22 20 88% 75.84 0.0
03 00:15 Calm 16.09 Fair CLR 22 20 88% 75.84 0.0
02 23:55 Calm 16.09 Fair CLR 22 21 94% 75.84 0.0
02 23:35 Calm 16.09 Fair CLR 22 21 94% 75.84 0.0
02 23:15 Calm 16.09 Fair CLR 22 21 94% 75.84 0.0
02 22:55 Calm 16.09 Fair CLR 23 21 89% 75.84 0.0
02 22:35 Calm 16.09 Fair CLR 23 21 89% 75.87 0.0
02 22:15 Calm 16.09 Fair CLR 22 21 94% 75.87 0.0
02 21:55 Calm 16.09 Fair CLR 23 21 89% 75.87 0.0
02 21:35 Calm 16.09 Fair CLR 23 21 89% 75.87 0.0
02 21:15 Calm 16.09 Fair CLR 23 21 89% 75.87 0.0
02 20:55 Calm 16.09 Fair CLR 24 21 83% 24 75.84 0.0
02 20:35 Calm 16.09 Fair CLR 24 21 83% 24 75.84 0.0
02 20:15 Calm 16.09 Fair CLR 24 21 83% 24 75.84 0.0
02 19:55 Calm 16.09 Fair CLR 25 21 79% 26 75.84 0.0
02 19:35 Calm 16.09 Fair CLR 26 21 74% 27 75.84 0.0
Date Time (cdt) Wind (kph) Vis. (km) Weather Sky Cond. Air Dwpt Max. Min. Relative Humidity Wind Chill (°C) Heat Index (°C) altimeter (cm) sea level (mb) 1 hr 3 hr 6 hr
6 hour
Temperature (ºC) Pressure Precipitation (cm)